Flight Track Log - Related Links

Times and Time Zones

All times are in EST time to prevent confusion due to time zone crossing. See the SWA2418 flight status page for this flight to view local times or setup timezone preferences in your user account.

Time Position Orientation Groundspeed Altitude Reporting Facility
EST Latitude Longitude Course Direction KTS MPH feet Rate Location/Type
05:21PM 41.8008 -87.7172 89° East 202 232 3,700  Level Chicago Center
05:22PM 41.7431 -87.7061 172° South 212 244 5,800 2,341 Climbing Chicago Center
05:23PM 41.6758 -87.6911 171° South 238 274 8,500 2,098 Climbing Chicago Center
05:24PM 41.6336 -87.7539 228° Southwest 227 261 10,100 871 Climbing Chicago Center
05:25PM 41.5967 -87.8203 233° Southwest 217 250 10,300 927 Climbing Chicago Center
05:26PM 41.3821 -88.1675 207° Southwest  Level FlightAware Approximate
05:27PM 41.5586 -87.8906 234° Southwest 232 267 12,000  Level Chicago Center
05:28PM 41.4917 -87.9403 209° Southwest 316 364 13,800 2,683 Climbing Chicago Center
05:29PM 41.3964 -87.9744 195° South 330 380 17,500 2,829 Climbing Chicago Center
05:30PM 41.3100 -88.0131 199° South 349 402 19,600 2,439 Climbing Chicago Center
05:31PM 41.2094 -88.0533 197° South 371 427 22,500 2,732 Climbing Chicago Center
05:32PM 41.1061 -88.0958 197° South 383 441 25,200 3,122 Climbing Chicago Center
05:33PM 41.0258 -88.1808 219° Southwest 358 412 28,900 3,171 Climbing Chicago Center
05:34PM 40.9561 -88.2594 220° Southwest 334 384 31,700 1,951 Climbing Chicago Center
05:35PM 40.8675 -88.3583 220° Southwest 348 400 32,900 1,268 Climbing Chicago Center
05:36PM 40.7867 -88.4472 220° Southwest 374 430 34,300 1,756 Climbing Chicago Center
05:37PM 40.7086 -88.5319 219° Southwest 367 422 36,500 1,366 Climbing Chicago Center
05:38PM 40.6294 -88.6200 220° Southwest 370 426 37,100 1,065 Climbing Chicago Center
05:39PM 40.5444 -88.7103 219° Southwest 389 448 38,700 1,415 Climbing Chicago Center
05:40PM 40.4664 -88.7972 220° Southwest 374 430 40,000 634 Climbing Chicago Center
05:41PM 40.3925 -88.8750 219° Southwest 360 414 40,000  Level Chicago Center
05:42PM 40.3003 -88.9747 220° Southwest 358 412 40,000  Level Chicago Center
05:43PM 40.2231 -89.0575 219° Southwest 357 411 40,000  Level Chicago Center
05:44PM 40.1458 -89.1400 219° Southwest 357 411 40,000  Level Chicago Center
05:45PM 40.0825 -89.2058 219° Southwest 358 412 40,000  Level Kansas City Center
05:46PM 40.0069 -89.2883 220° Southwest 357 411 40,000  Level Kansas City Center
05:47PM 39.9297 -89.3694 219° Southwest 357 411 40,000  Level Kansas City Center
05:48PM 39.8533 -89.4519 220° Southwest 357 411 40,000  Level Kansas City Center
05:49PM 39.7750 -89.5319 218° Southwest 357 411 40,000  Level Kansas City Center
05:50PM 39.6911 -89.6214 219° Southwest 359 413 40,000  Level Kansas City Center
05:51PM 39.6128 -89.7039 219° Southwest 359 413 40,000  Level Kansas City Center
05:52PM 39.5336 -89.7867 219° Southwest 362 417 40,000  Level Kansas City Center
05:53PM 39.4553 -89.8689 219° Southwest 362 417 40,000  Level Kansas City Center
05:54PM 39.3603 -89.9672 219° Southwest 362 417 40,000  Level Kansas City Center
05:55PM 39.2817 -90.0497 219° Southwest 363 418 40,000  Level Kansas City Center
05:56PM 39.1961 -90.1381 219° Southwest 363 418 40,000  Level Kansas City Center
05:57PM 39.1244 -90.2125 219° Southwest 363 418 40,000  Level Kansas City Center
05:58PM 39.0458 -90.2928 218° Southwest 363 418 40,000  Level Kansas City Center
05:59PM 38.9669 -90.3750 219° Southwest 363 418 40,000  Level Kansas City Center
06:00PM 38.8750 -90.4706 219° Southwest 363 418 40,000  Level Kansas City Center
06:01PM 38.7964 -90.5542 220° Southwest 363 418 40,000  Level Kansas City Center
06:02PM 38.7197 -90.6444 223° Southwest 371 427 40,000  Level Kansas City Center
06:03PM 38.6469 -90.7278 222° Southwest 371 427 40,000  Level Kansas City Center
06:04PM 38.5706 -90.8164 222° Southwest 371 427 40,000  Level Kansas City Center
06:05PM 38.4794 -90.9219 222° Southwest 371 427 40,000  Level Kansas City Center
06:06PM 38.4028 -91.0089 222° Southwest 371 427 40,000  Level Kansas City Center
06:07PM 38.3258 -91.0978 222° Southwest 372 428 40,000  Level Kansas City Center
06:08PM 38.2489 -91.1847 222° Southwest 372 428 40,000  Level Kansas City Center
06:09PM 38.1622 -91.2794 221° Southwest 372 428 40,000  Level Kansas City Center
06:10PM 38.0861 -91.3672 222° Southwest 369 425 40,000  Level Kansas City Center
06:11PM 38.0069 -91.4553 221° Southwest 370 426 40,000  Level Kansas City Center
06:13PM 37.9322 -91.5425 223° Southwest 368 423 40,000  Level Kansas City Center
06:14PM 37.8539 -91.6300 221° Southwest 367 422 40,000  Level Kansas City Center
06:15PM 37.7756 -91.7167 221° Southwest 368 423 40,000  Level Kansas City Center
06:16PM 37.6986 -91.8033 222° Southwest 368 423 40,000  Level Kansas City Center
06:17PM 37.6208 -91.8911 222° Southwest 368 423 40,000  Level Kansas City Center
06:18PM 37.5431 -91.9756 221° Southwest 368 423 40,000  Level Kansas City Center
06:19PM 37.4642 -92.0631 221° Southwest 368 423 40,000  Level Kansas City Center
06:20PM 37.3706 -92.1667 221° Southwest 369 425 40,000  Level Kansas City Center
06:21PM 37.2936 -92.2533 222° Southwest 369 425 40,000  Level Kansas City Center
06:22PM 37.2175 -92.3369 221° Southwest 365 420 40,000  Level Kansas City Center
06:23PM 37.1397 -92.4189 220° Southwest 365 420 40,000  Level Kansas City Center
06:24PM 37.0636 -92.5031 221° Southwest 364 419 40,000  Level Kansas City Center
06:25PM 36.9872 -92.5864 221° Southwest 364 419 40,000  Level Kansas City Center
06:26PM 36.9108 -92.6703 221° Southwest 364 419 40,000  Level Kansas City Center
06:27PM 36.8333 -92.7522 220° Southwest 364 419 40,000  Level Kansas City Center
06:28PM 36.7564 -92.8344 221° Southwest 364 419 40,000  Level Kansas City Center
06:29PM 36.6792 -92.9161 220° Southwest 363 418 40,000  Level Kansas City Center
06:30PM 36.6028 -92.9986 221° Southwest 363 418 40,000  Level Kansas City Center
06:31PM 36.5264 -93.0806 221° Southwest 362 417 40,000  Level Kansas City Center
06:32PM 36.4356 -93.1783 221° Southwest 362 417 40,000  Level Kansas City Center
06:33PM 36.3603 -93.2592 221° Southwest 362 417 40,000  Level Kansas City Center
06:34PM 36.3147 -93.3069 220° Southwest 358 412 40,000  Level Memphis Center
06:35PM 36.2400 -93.3864 221° Southwest 358 412 40,000  Level Memphis Center
06:36PM 36.1650 -93.4631 220° Southwest 355 409 40,000  Level Memphis Center
06:37PM 36.0922 -93.5417 221° Southwest 353 406 40,000  Level Memphis Center
06:38PM 36.0172 -93.6189 220° Southwest 353 406 40,000  Level Memphis Center
06:39PM 35.9442 -93.6958 220° Southwest 352 405 40,000  Level Memphis Center
06:40PM 35.8706 -93.7736 221° Southwest 351 404 40,000  Level Memphis Center
06:41PM 35.7958 -93.8506 220° Southwest 351 404 40,000  Level Memphis Center
06:42PM 35.7050 -93.9447 220° Southwest 352 405 40,000  Level Memphis Center
06:43PM 35.6303 -94.0231 220° Southwest 352 405 40,000  Level Memphis Center
06:44PM 35.5544 -94.1006 220° Southwest 353 406 40,000  Level Memphis Center
06:45PM 35.4789 -94.1781 220° Southwest 353 406 40,000  Level Memphis Center
06:46PM 35.4042 -94.2561 220° Southwest 354 407 40,000  Level Memphis Center
06:47PM 35.3228 -94.3236 214° Southwest 355 409 40,000  Level Memphis Center
06:48PM 35.2358 -94.3886 211° Southwest 356 410 40,000  Level Memphis Center
06:49PM 35.1517 -94.4528 212° Southwest 356 410 40,000  Level Memphis Center
06:50PM 35.0489 -94.5311 212° Southwest 359 413 40,000  Level Memphis Center
06:51PM 34.9633 -94.5953 212° Southwest 360 414 40,000  Level Fort Worth Center
06:52PM 34.8778 -94.6611 212° Southwest 360 414 40,000  Level Fort Worth Center
06:53PM 34.7908 -94.7253 211° Southwest 360 414 40,000  Level Fort Worth Center
06:54PM 34.7094 -94.7878 212° Southwest 362 417 40,000  Level Fort Worth Center
06:55PM 34.6242 -94.8517 212° Southwest 362 417 40,000  Level Fort Worth Center
06:56PM 34.5208 -94.9325 213° Southwest 364 419 40,000  Level Fort Worth Center
06:57PM 34.4356 -94.9942 211° Southwest 363 418 40,000  Level Fort Worth Center
06:58PM 34.3508 -95.0578 212° Southwest 363 418 40,000  Level Fort Worth Center
06:59PM 34.2656 -95.1217 212° Southwest 362 417 40,000  Level Fort Worth Center
07:00PM 34.1792 -95.1856 211° Southwest 363 418 40,000  Level Fort Worth Center
07:01PM 34.0925 -95.2503 212° Southwest 364 419 40,000  Level Fort Worth Center
07:02PM 33.9897 -95.3250 211° Southwest 363 418 40,000  Level Fort Worth Center
07:03PM 33.9047 -95.3892 212° Southwest 362 417 40,000  Level Fort Worth Center
07:04PM 33.8189 -95.4506 211° Southwest 362 417 40,000  Level Fort Worth Center
07:05PM 33.7347 -95.5136 212° Southwest 359 413 40,000  Level Fort Worth Center
07:06PM 33.6481 -95.5761 211° Southwest 361 415 40,000  Level Fort Worth Center
07:08PM 33.5550 -95.6450 212° Southwest 360 414 40,000  Level Fort Worth Center
07:09PM 33.4686 -95.7086 212° Southwest 361 415 40,000  Level Fort Worth Center
07:10PM 33.3811 -95.7706 211° Southwest 361 415 40,000  Level Fort Worth Center
07:11PM 33.2944 -95.8347 212° Southwest 362 417 40,000  Level Fort Worth Center
07:12PM 33.2067 -95.8972 211° Southwest 363 418 40,000  Level Fort Worth Center
07:13PM 33.1022 -95.9733 211° Southwest 363 418 40,000  Level Fort Worth Center
07:14PM 33.0136 -96.0367 211° Southwest 369 425 40,000  Level Fort Worth Center
07:15PM 32.9261 -96.1014 212° Southwest 369 425 40,000  Level Fort Worth Center
07:16PM 32.8369 -96.1639 210° Southwest 371 427 40,000  Level Fort Worth Center
07:17PM 32.7494 -96.2264 211° Southwest 370 426 40,000  Level Fort Worth Center
07:18PM 32.6597 -96.2908 211° Southwest 371 427 40,000  Level Fort Worth Center
07:19PM 32.5531 -96.3661 211° Southwest 371 427 40,000  Level Fort Worth Center
07:20PM 32.4633 -96.4297 211° Southwest 371 427 40,000  Level Fort Worth Center
07:21PM 32.3736 -96.4925 211° Southwest 372 428 40,000  Level Fort Worth Center
07:22PM 32.2853 -96.5553 211° Southwest 372 428 40,000  Level Fort Worth Center
07:23PM 32.1961 -96.6194 211° Southwest 372 428 40,000  Level Fort Worth Center
07:24PM 32.1075 -96.6814 211° Southwest 371 427 40,000  Level Fort Worth Center
07:25PM 32.0183 -96.7439 211° Southwest 371 427 40,000  Level Fort Worth Center
07:26PM 31.9172 -96.8147 211° Southwest 371 427 40,000  Level Fort Worth Center
07:27PM 31.8267 -96.8781 211° Southwest 371 427 40,000  Level Fort Worth Center
07:28PM 31.7364 -96.9400 210° Southwest 371 427 40,000  Level Fort Worth Center
07:29PM 31.6458 -97.0033 211° Southwest 372 428 40,000  Level Fort Worth Center
07:30PM 31.5542 -97.0661 210° Southwest 374 430 40,000  Level Fort Worth Center
07:31PM 31.4550 -97.1125 202° Southwest 383 441 40,000  Level Fort Worth Center
07:32PM 31.3514 -97.1544 199° South 387 445 40,000 -390 Level Fort Worth Center
07:33PM 31.2486 -97.1947 199° South 387 445 39,200 -976 Descending Fort Worth Center
07:34PM 31.1278 -97.2414 198° South 387 445 38,000 -878 Descending Fort Worth Center
07:35PM 31.0208 -97.2814 198° South 390 449 37,400 -780 Descending Fort Worth Center
07:36PM 30.9167 -97.3231 199° South 393 452 36,400 -871 Descending Fort Worth Center
07:37PM 30.8142 -97.3617 198° South 401 461 35,600 -878 Descending Fort Worth Center
07:38PM 30.7050 -97.4036 198° South 415 478 34,600 -1,512 Descending Fort Worth Center
07:39PM 30.5756 -97.4539 198° South 418 481 32,500 -2,537 Descending Fort Worth Center
07:40PM 30.4642 -97.4975 199° South 420 483 29,400 -2,780 Descending Fort Worth Center
07:41PM 30.3572 -97.5397 199° South 410 472 26,800 -2,585 Descending Fort Worth Center
07:42PM 30.2683 -97.6058 213° Southwest 380 437 24,100 -2,585 Descending Fort Worth Center
07:44PM 30.1811 -97.6664 211° Southwest 368 423 21,500 -2,419 Descending Fort Worth Center
07:45PM 30.0981 -97.7239 211° Southwest 351 404 19,100 -2,462 Descending Fort Worth Center
07:45PM 30.0211 -97.7786 212° Southwest 328 377 16,700 -2,647 Descending Houston Center
07:46PM 30.0033 -97.7897 208° Southwest 333 383 16,100 -2,459 Descending Houston Center
07:46PM 29.9422 -97.8319 211° Southwest 329 379 14,200 -2,226 Descending Houston Center
07:47PM 29.9300 -97.8397 209° Southwest 331 381 13,800 -2,000 Descending Houston Center
07:47PM 29.8797 -97.9050 228° Southwest 324 373 12,200 -1,869 Descending Houston Center
07:48PM 29.8708 -97.9233 241° Southwest 316 364 11,900 -1,481 Descending Houston Center
07:49PM 29.8361 -98.0083 245° Southwest 293 337 10,300 -1,317 Descending Houston Center
07:50PM 29.7994 -98.0950 244° Southwest 282 325 9,200 -1,027 Descending Houston Center
07:51PM 29.7717 -98.1594 244° Southwest 266 306 8,400 -968 Descending Houston Center
07:51PM 29.7669 -98.1717 246° West 273 314 8,200 -984 Descending Houston Center
07:52PM 29.7389 -98.2358 243° Southwest 263 303 7,400 -984 Descending Houston Center
07:52PM 29.7322 -98.2542 247° West 266 306 7,200 -1,000 Descending Houston Center
07:53PM 29.7214 -98.3197 259° West 276 318 6,400 -968 Descending Houston Center
07:53PM 29.7217 -98.3386 271° West 274 315 6,200 -1,180 Descending Houston Center
07:54PM 29.7231 -98.4061 271° West 278 320 5,200 -1,180 Descending Houston Center
07:54PM 29.7239 -98.4261 273° West 275 316 5,000 -590 Descending Houston Center
07:55PM 29.7181 -98.4861 264° West 237 273 4,600 -484 Descending Houston Center
07:55PM 29.7153 -98.5075 262° West 239 275 4,500 -600 Descending Houston Center
07:56PM 29.7097 -98.5569 263° West 197 227 4,000 -689 Descending Houston Center
07:56PM 29.7078 -98.5711 261° West 207 238 3,800 -984 Descending Houston Center
07:57PM 29.6775 -98.5944 214° Southwest 159 183 3,000 -774 Descending Houston Center
07:57PM 29.6700 -98.6014 219° Southwest 171 197 3,000 -200 Level Houston Center
07:58PM 29.6381 -98.6014 180° South 152 175 2,800 -197 Descending Houston Center
07:58PM 29.6281 -98.5933 145° Southeast 153 176 2,800  Level Houston Center
07:59PM 29.6083 -98.5739 139° Southeast 132 152 2,800 -194 Level Houston Center
07:59PM 29.6019 -98.5619 122° Southeast 139 160 2,600 -689 Descending Houston Center
08:00PM 29.5842 -98.5383 131° Southeast 138 159 2,100 -689 Descending Houston Center
08:00PM 29.5764 -98.5289 133° Southeast 139 160 1,900 -700 Descending Houston Center
08:01PM 29.5606 -98.5097 134° Southeast 124 143 1,400 -677 Descending Houston Center
08:01PM 29.5531 -98.4983 127° Southeast 125 144 1,200 -366 Descending Houston Center
08:02PM 29.5336 -98.4736 132° Southeast 122 140 900 -295 Descending Houston Center

Login

Don't have an account? Register now (free) for customized features, flight alerts, and more!